Venetie, AK (99781)

5:49 AM AKDT on August 27, 2014 (GMT -0800)
Fort Yukon | Change Station
CLOSE
Current Station
Airport
Location: Fort Yukon,
Elevation: 430 ft
Nearby Weather Stations

Elev 430 ft 66.57 °N, 145.27 °W | Updated 13 minutes ago

Mostly Cloudy
Mostly Cloudy
46 °F
Feels Like 46 °F
N
0
Wind Variable Wind from North

Today
High -- | Low -- °F
--% Chance of Precip.
Yesterday
High -- | Low -- °F
Precip. -- in
5:59 AM 9:31 PM
Waxing Crescent, 4% visible
Pressure 29.77 in
Visibility 10.0 miles
Clouds Few 3500 ft
Mostly Cloudy 6500 ft
Mostly Cloudy 7000 ft
Dew Point 45 °F
Humidity 93%
Rainfall 0.00 in
Snow Depth Not available.
UV 0 out of 12
Pollen Not available.
Air Quality Not available.
Flu Activity Not available.
METAR PFYU 271336Z 00000KT 10SM FEW035 BKN065 BKN070 08/07 A2977 RMK AO1

More Conditions Fewer Conditions

Pressure 29.77 in
Visibility 10.0 miles
Clouds Few 3500 ft
Mostly Cloudy 6500 ft
Mostly Cloudy 7000 ft
Dew Point 45 °F
Humidity 93%
Rainfall 0.00 in
Snow Depth Not available.
UV 0 out of 12
Pollen Not available.
Air Quality Not available.
Flu Activity Not available.
METAR PFYU 271336Z 00000KT 10SM FEW035 BKN065 BKN070 08/07 A2977 RMK AO1

More Conditions Fewer Conditions

10-Day Weather Forecast

Almanac

Astronomy

Aug. 27, 2014 Rise Set
Actual Time 5:59 AM AKDT 9:31 PM AKDT
Civil Twilight 4:53 AM AKDT 10:36 PM AKDT
Nautical Twilight 2:55 AM AKDT 12:28 AM AKDT
Astronomical Twilight Sun does not rise Sun does not rise
Moon 9:19 AM AKDT 9:04 PM AKDT
Length of Visible Light 17h 42m
Length of Day
15h 32m
Tomorrow will be 7m 40s shorter.
Waxing Crescent, 4% of the Moon is Illuminated
Today
Waxing Crescent
Sep 2
First Quarter
Sep 8
Full
Sep 15
Last Quarter
Sep 24
New

Today's Extremes

State Highs State Lows

Community

WunderPhotos

Upload Photos

1,747,684 photos uploaded!

Nearby

Snow Depth

Station Depth Elevation
Fort Yukon 2 in 430 ft
Coldfoot 1 in 1040 ft
Eagle Summit 1 in 3650 ft
Atigun Pass 0 in 4800 ft
Little Chena Ridge 1 in 2000 ft

Earthquake Activity

City Distance Mag. Time & Date
No recent earthquake activity has been reported nearby.
Minimum magnitude displayed is 2.5.

Coastal Water Temperatures

Place Temperature
No Stations Reporting

Nearby Weather Stations